Time;durP1;ratioP1;P1;durP2;ratioP2;P2;SDS_P1;SDS_P2;PMS_P1;PMS_P2;Temp;Humidity;BMP_temperature;BMP_pressure;BME280_temperature;BME280_humidity;BME280_pressure;Samples;Min_cycle;Max_cycle;Signal;HPM_P1;HPM_P2
2022/10/11 00:00:32;;;;;;;0.20;0.00;;;18.50;99.90;;;;;;21245828;28;20394;-73
2022/10/11 00:10:37;;;;;;;0.20;0.00;;;18.30;99.90;;;;;;21226778;28;20401;-71
2022/10/11 00:20:41;;;;;;;0.20;0.00;;;18.30;99.90;;;;;;21244787;28;20481;-71
2022/10/11 00:30:46;;;;;;;0.20;0.10;;;18.20;99.90;;;;;;21238904;28;20394;-70
2022/10/11 00:40:50;;;;;;;0.20;0.00;;;17.90;99.90;;;;;;21242658;28;20387;-72
2022/10/11 00:50:57;;;;;;;0.20;0.00;;;17.90;99.90;;;;;;21241647;28;20390;-72
2022/10/11 01:01:01;;;;;;;0.20;0.00;;;17.90;99.90;;;;;;21258814;28;20429;-71
2022/10/11 01:11:06;;;;;;;0.20;0.10;;;17.80;99.90;;;;;;21255104;28;20420;-71
2022/10/11 01:21:17;;;;;;;0.20;0.00;;;17.90;99.90;;;;;;21239018;28;20462;-72
2022/10/11 01:31:28;;;;;;;0.20;0.10;;;18.20;99.90;;;;;;21256146;28;20408;-72
2022/10/11 01:41:37;;;;;;;0.20;0.00;;;18.10;99.90;;;;;;21255252;28;20390;-72
2022/10/11 01:51:46;;;;;;;0.20;0.00;;;17.90;99.90;;;;;;21236821;28;20416;-72
2022/10/11 02:01:57;;;;;;;0.20;0.10;;;17.60;99.90;;;;;;21253409;28;20405;-71
2022/10/11 02:12:06;;;;;;;0.20;0.00;;;17.40;99.90;;;;;;21253037;28;20485;-71
2022/10/11 02:22:13;;;;;;;0.20;0.00;;;17.30;99.90;;;;;;21252046;28;20421;-72
2022/10/11 02:32:20;;;;;;;0.20;0.00;;;17.30;99.90;;;;;;21233655;28;20466;-72
2022/10/11 02:42:29;;;;;;;0.20;0.00;;;17.20;99.90;;;;;;21250915;28;20425;-71
2022/10/11 02:52:35;;;;;;;0.20;0.00;;;17.20;99.90;;;;;;21249213;28;20399;-71
2022/10/11 03:02:38;;;;;;;0.20;0.10;;;17.20;99.90;;;;;;21230222;28;20407;-71
2022/10/11 03:12:44;;;;;;;0.20;0.10;;;17.30;99.90;;;;;;21248402;28;20398;-70
2022/10/11 03:22:47;;;;;;;0.20;0.00;;;17.40;99.90;;;;;;21230059;28;20390;-71
2022/10/11 03:32:52;;;;;;;0.20;0.00;;;17.30;99.90;;;;;;21247194;28;20371;-71
2022/10/11 03:42:56;;;;;;;0.20;0.00;;;17.20;99.90;;;;;;21246240;28;20394;-70
2022/10/11 03:53:02;;;;;;;0.20;0.00;;;17.10;99.90;;;;;;21245414;28;20387;-69
2022/10/11 04:03:06;;;;;;;0.20;0.00;;;17.20;99.90;;;;;;21253487;28;20410;-70
2022/10/11 04:13:12;;;;;;;0.20;0.00;;;17.10;99.90;;;;;;21243963;28;20387;-70
2022/10/11 04:23:15;;;;;;;0.20;0.00;;;17.10;99.90;;;;;;21261437;28;20451;-69
2022/10/11 04:33:21;;;;;;;0.20;0.00;;;17.00;99.90;;;;;;21260261;28;20405;-70
2022/10/11 04:43:25;;;;;;;0.20;0.00;;;17.10;99.90;;;;;;21241481;28;20399;-70
2022/10/11 04:53:30;;;;;;;0.20;0.03;;;17.10;99.90;;;;;;21241486;28;20391;-72
2022/10/11 05:03:34;;;;;;;0.20;0.10;;;17.10;99.90;;;;;;21255642;28;21012;-72
2022/10/11 05:13:39;;;;;;;0.20;0.10;;;17.20;99.90;;;;;;21234242;28;20387;-73
2022/10/11 05:23:43;;;;;;;0.20;0.10;;;17.20;99.90;;;;;;21251209;28;20398;-71
2022/10/11 05:33:48;;;;;;;0.20;0.10;;;17.30;99.90;;;;;;21249413;28;20383;-73
2022/10/11 05:43:52;;;;;;;0.20;0.10;;;17.50;99.90;;;;;;21230177;28;20398;-72
2022/10/11 05:53:58;;;;;;;0.20;0.10;;;17.50;99.90;;;;;;21245607;28;20398;-73
2022/10/11 06:04:03;;;;;;;0.20;0.10;;;17.40;99.90;;;;;;21174965;28;1330031;-70
2022/10/11 06:14:10;;;;;;;0.20;0.10;;;17.50;99.90;;;;;;21231188;28;20907;-71
2022/10/11 06:24:14;;;;;;;0.20;0.10;;;17.50;99.90;;;;;;21249614;28;20398;-72
2022/10/11 06:34:19;;;;;;;0.20;0.07;;;17.60;99.90;;;;;;21247837;28;20378;-73
2022/10/11 06:44:23;;;;;;;0.20;0.00;;;17.80;99.90;;;;;;21246054;28;20446;-70
2022/10/11 06:54:28;;;;;;;0.20;0.10;;;18.00;99.90;;;;;;21227790;28;20395;-72
2022/10/11 07:04:32;;;;;;;0.20;0.00;;;18.20;99.90;;;;;;21245691;28;20395;-72
2022/10/11 07:14:37;;;;;;;0.20;0.00;;;18.30;99.90;;;;;;21244312;28;20389;-72
2022/10/11 07:24:41;;;;;;;0.20;0.00;;;18.70;99.90;;;;;;21245365;28;20395;-73
2022/10/11 07:34:46;;;;;;;0.20;0.03;;;18.80;99.90;;;;;;21243047;28;20379;-71
2022/10/11 07:44:50;;;;;;;0.20;0.00;;;19.10;99.90;;;;;;21241276;28;20390;-73
2022/10/11 07:54:55;;;;;;;0.20;0.00;;;19.60;99.90;;;;;;21243673;28;20394;-72
2022/10/11 08:04:59;;;;;;;0.20;0.07;;;20.40;99.90;;;;;;21243729;28;20391;-72
2022/10/11 08:15:06;;;;;;;0.20;0.00;;;21.10;99.90;;;;;;21242140;28;20398;-73
2022/10/11 08:25:09;;;;;;;0.20;0.00;;;21.80;99.90;;;;;;21243327;28;21158;-72
2022/10/11 08:35:15;;;;;;;0.20;0.00;;;22.70;99.90;;;;;;21242754;28;20416;-72
2022/10/11 08:45:28;;;;;;;0.20;0.00;;;22.80;99.90;;;;;;21243249;28;20402;-72
2022/10/11 08:55:40;;;;;;;0.20;0.00;;;22.90;99.90;;;;;;21238681;28;20395;-70
2022/10/11 09:06:01;;;;;;;0.20;0.00;;;22.80;99.90;;;;;;21236980;28;20432;-71
2022/10/11 09:16:14;;;;;;;0.20;0.00;;;22.80;99.90;;;;;;21254658;28;20387;-72
2022/10/11 09:26:27;;;;;;;0.20;0.00;;;22.90;99.90;;;;;;21252320;28;20399;-71
2022/10/11 09:36:39;;;;;;;0.20;0.00;;;23.20;99.90;;;;;;21252847;28;20465;-71
2022/10/11 09:46:45;;;;;;;0.20;0.00;;;23.00;99.90;;;;;;21251565;28;20434;-71
2022/10/11 09:56:50;;;;;;;0.20;0.00;;;23.00;99.90;;;;;;21231172;28;20922;-71
2022/10/11 10:07:11;;;;;;;0.20;0.00;;;23.00;99.90;;;;;;21234183;28;21259;-70
2022/10/11 10:17:17;;;;;;;0.20;0.00;;;23.00;99.90;;;;;;21250439;28;20435;-71
2022/10/11 10:27:24;;;;;;;0.20;0.00;;;23.10;99.90;;;;;;21214635;28;20450;-71
2022/10/11 10:37:34;;;;;;;0.20;0.00;;;23.60;99.90;;;;;;21247027;28;20407;-71
2022/10/11 10:47:57;;;;;;;0.20;0.00;;;23.70;99.90;;;;;;21246400;28;20468;-71
2022/10/11 10:58:08;;;;;;;0.20;0.00;;;23.90;99.90;;;;;;21246557;28;20395;-70
2022/10/11 11:08:22;;;;;;;0.20;0.00;;;23.70;99.90;;;;;;21226805;28;20506;-72
2022/10/11 11:18:39;;;;;;;0.20;0.00;;;23.60;99.90;;;;;;21227360;28;20522;-71
2022/10/11 11:29:03;;;;;;;0.20;0.00;;;23.80;99.90;;;;;;21246734;28;20398;-70
2022/10/11 11:39:16;;;;;;;0.20;0.00;;;23.90;99.90;;;;;;21244094;28;21092;-71
2022/10/11 11:49:28;;;;;;;0.20;0.20;;;24.20;99.90;;;;;;21182313;27;20388;-70
2022/10/11 11:59:39;;;;;;;0.20;0.00;;;24.50;99.90;;;;;;21139011;28;20414;-70
2022/10/11 12:09:49;;;;;;;0.20;0.00;;;24.20;99.90;;;;;;21136326;28;20430;-73
2022/10/11 12:20:13;;;;;;;0.20;0.00;;;24.10;99.90;;;;;;21220966;27;20415;-70
2022/10/11 12:30:52;;;;;;;0.20;0.00;;;24.50;99.90;;;;;;21251401;27;20378;-70
2022/10/11 12:41:00;;;;;;;0.20;0.00;;;24.70;99.90;;;;;;21243097;28;20459;-70
2022/10/11 12:51:25;;;;;;;0.20;0.00;;;25.70;99.90;;;;;;21237509;28;20390;-70
2022/10/11 13:01:36;;;;;;;0.50;0.50;;;25.00;99.90;;;;;;21253963;28;20425;-72
2022/10/11 13:11:46;;;;;;;0.20;0.10;;;24.80;99.90;;;;;;21253047;28;20459;-70
2022/10/11 13:21:54;;;;;;;0.20;0.00;;;24.60;99.90;;;;;;21234332;28;20403;-70
2022/10/11 13:31:59;;;;;;;0.20;0.00;;;25.40;99.90;;;;;;21233059;28;20412;-70
2022/10/11 13:42:07;;;;;;;0.20;0.00;;;24.40;99.90;;;;;;21232549;28;20421;-71
2022/10/11 13:52:22;;;;;;;0.20;0.00;;;24.50;99.90;;;;;;21250098;28;20387;-69
2022/10/11 14:02:29;;;;;;;0.20;0.00;;;23.60;99.90;;;;;;21249963;27;20406;-71
2022/10/11 14:12:38;;;;;;;0.20;0.00;;;23.80;99.90;;;;;;21226227;28;20383;-71
2022/10/11 14:22:43;;;;;;;0.20;0.00;;;23.40;99.90;;;;;;21246895;28;20390;-71
2022/10/11 14:32:49;;;;;;;0.20;0.00;;;23.10;99.90;;;;;;21246487;28;20400;-70
2022/10/11 14:42:55;;;;;;;0.20;0.00;;;23.20;99.90;;;;;;21242556;28;20406;-71
2022/10/11 14:53:00;;;;;;;0.20;0.00;;;22.90;99.90;;;;;;21246730;28;20403;-71
2022/10/11 15:03:06;;;;;;;0.20;0.00;;;22.90;99.90;;;;;;21227731;28;20399;-71
2022/10/11 15:13:09;;;;;;;0.20;0.00;;;22.80;99.90;;;;;;21244723;28;20399;-71
2022/10/11 15:23:15;;;;;;;0.20;0.00;;;22.70;99.90;;;;;;21243972;28;20447;-70
2022/10/11 15:33:18;;;;;;;0.20;0.00;;;22.70;99.90;;;;;;21226304;28;20413;-71
2022/10/11 15:43:24;;;;;;;0.20;0.00;;;22.60;99.90;;;;;;21218236;28;20432;-72
2022/10/11 15:53:30;;;;;;;0.20;0.00;;;22.20;99.90;;;;;;21223421;28;20470;-71
2022/10/11 16:03:35;;;;;;;0.20;0.00;;;22.20;99.90;;;;;;21259511;28;20473;-73
2022/10/11 16:13:39;;;;;;;0.20;0.00;;;22.30;99.90;;;;;;21239730;28;20391;-71
2022/10/11 16:23:44;;;;;;;0.20;0.05;;;22.20;99.90;;;;;;21258193;28;20402;-71
2022/10/11 16:33:49;;;;;;;0.20;0.00;;;22.10;99.90;;;;;;21257956;28;20395;-72
2022/10/11 16:43:55;;;;;;;0.20;0.08;;;22.00;99.90;;;;;;21256884;28;20412;-72
2022/10/11 16:53:59;;;;;;;0.20;0.10;;;21.90;99.90;;;;;;21230141;28;20410;-70
2022/10/11 17:04:04;;;;;;;0.20;0.00;;;21.90;99.90;;;;;;21152535;28;20411;-72
2022/10/11 17:14:08;;;;;;;0.20;0.00;;;21.80;99.90;;;;;;21246044;28;20412;-72
2022/10/11 17:24:13;;;;;;;0.20;0.00;;;21.70;99.90;;;;;;21215704;28;20395;-71
2022/10/11 17:34:17;;;;;;;0.20;0.10;;;21.80;99.90;;;;;;21214810;28;20387;-72
2022/10/11 17:44:22;;;;;;;0.20;0.00;;;21.60;99.90;;;;;;21246990;28;20457;-68
2022/10/11 17:54:27;;;;;;;0.20;0.00;;;21.50;99.90;;;;;;21233380;28;20414;-74
2022/10/11 18:04:32;;;;;;;0.20;0.00;;;21.30;99.90;;;;;;21230602;28;20412;-72
2022/10/11 18:14:35;;;;;;;0.20;0.10;;;21.40;99.90;;;;;;21247511;27;21075;-72
2022/10/11 18:24:40;;;;;;;0.20;0.00;;;21.20;99.90;;;;;;21247460;28;20402;-72
2022/10/11 18:34:44;;;;;;;0.20;0.00;;;21.00;99.90;;;;;;21202437;28;20470;-72
2022/10/11 18:44:49;;;;;;;0.20;0.00;;;21.10;99.90;;;;;;21183631;28;20402;-72
2022/10/11 18:54:53;;;;;;;0.20;0.00;;;20.80;99.90;;;;;;21222875;28;20398;-71
2022/10/11 19:04:58;;;;;;;0.20;0.10;;;20.60;99.90;;;;;;21241686;28;20410;-72
2022/10/11 19:15:02;;;;;;;0.20;0.00;;;20.50;99.90;;;;;;21242927;28;20405;-72
2022/10/11 19:25:08;;;;;;;0.20;0.00;;;20.30;99.90;;;;;;21242901;28;20397;-72
2022/10/11 19:35:12;;;;;;;0.20;0.00;;;20.20;99.90;;;;;;21224706;28;20406;-72
2022/10/11 19:45:23;;;;;;;0.20;0.00;;;20.10;99.90;;;;;;21241573;28;20410;-73
2022/10/11 19:55:27;;;;;;;0.20;0.00;;;20.20;99.90;;;;;;21241963;28;20436;-72
2022/10/11 20:05:36;;;;;;;0.20;0.00;;;19.80;99.90;;;;;;21240783;28;20468;-72
2022/10/11 20:15:40;;;;;;;0.20;0.00;;;19.50;99.90;;;;;;21241390;28;20390;-73
2022/10/11 20:25:45;;;;;;;0.20;0.00;;;19.30;99.90;;;;;;21240205;28;20394;-72
2022/10/11 20:35:59;;;;;;;0.20;0.00;;;19.60;99.90;;;;;;21206285;28;20400;-72
2022/10/11 20:46:06;;;;;;;0.20;0.07;;;19.40;99.90;;;;;;21254786;28;21053;-72
2022/10/11 20:56:11;;;;;;;0.20;0.00;;;19.50;99.90;;;;;;21258963;28;20386;-71
2022/10/11 21:06:16;;;;;;;0.20;0.00;;;19.30;99.90;;;;;;21234481;27;20402;-71
2022/10/11 21:16:19;;;;;;;0.20;0.00;;;18.80;99.90;;;;;;21210763;27;20394;-72
2022/10/11 21:26:26;;;;;;;0.20;0.00;;;18.40;99.90;;;;;;21214056;28;20395;-72
2022/10/11 21:36:30;;;;;;;0.20;0.00;;;18.40;99.90;;;;;;21208828;28;20391;-71
2022/10/11 21:46:35;;;;;;;0.20;0.00;;;18.10;99.90;;;;;;21209139;28;20421;-72
2022/10/11 21:56:59;;;;;;;0.20;0.00;;;17.70;99.90;;;;;;21189948;28;20391;-71
2022/10/11 22:07:04;;;;;;;0.20;0.00;;;18.10;99.90;;;;;;21189921;28;20399;-73
2022/10/11 22:17:08;;;;;;;0.20;0.00;;;18.20;99.90;;;;;;21209140;28;20387;-72
2022/10/11 22:27:13;;;;;;;0.20;0.00;;;18.30;99.90;;;;;;21189867;28;20411;-71
2022/10/11 22:37:17;;;;;;;0.20;0.00;;;18.40;99.90;;;;;;21231714;28;20430;-71
2022/10/11 22:47:22;;;;;;;0.20;0.00;;;18.40;99.90;;;;;;21187583;28;20401;-71
2022/10/11 22:57:26;;;;;;;0.20;0.00;;;18.20;99.90;;;;;;21187203;28;20393;-72
2022/10/11 23:07:31;;;;;;;0.20;0.00;;;18.20;99.90;;;;;;21182853;28;20404;-71
2022/10/11 23:17:35;;;;;;;0.20;0.00;;;18.30;99.90;;;;;;21185526;28;20383;-73
2022/10/11 23:27:40;;;;;;;0.20;0.00;;;18.30;99.90;;;;;;21202225;28;20430;-72
2022/10/11 23:37:44;;;;;;;0.20;0.00;;;18.30;99.90;;;;;;21185257;28;20387;-72
2022/10/11 23:47:49;;;;;;;0.20;0.00;;;18.40;99.90;;;;;;21231456;28;20395;-71
2022/10/11 23:57:53;;;;;;;0.20;0.00;;;18.30;99.90;;;;;;21245221;28;20915;-72
